sensor_id;sensor_type;location;lat;lon;timestamp;P1;durP1;ratioP1;P2;durP2;ratioP2
19780;SDS011;10050;55.492;13.506;2023-02-10T00:01:50;18.47;;;4.20;;
19780;SDS011;10050;55.492;13.506;2023-02-10T00:04:16;18.07;;;4.43;;
19780;SDS011;10050;55.492;13.506;2023-02-10T00:06:41;15.77;;;4.87;;
19780;SDS011;10050;55.492;13.506;2023-02-10T00:09:09;16.70;;;4.77;;
19780;SDS011;10050;55.492;13.506;2023-02-10T00:11:37;13.63;;;3.80;;
19780;SDS011;10050;55.492;13.506;2023-02-10T00:14:21;23.30;;;4.60;;
19780;SDS011;10050;55.492;13.506;2023-02-10T00:16:50;14.23;;;3.83;;
19780;SDS011;10050;55.492;13.506;2023-02-10T00:19:17;18.67;;;3.73;;
19780;SDS011;10050;55.492;13.506;2023-02-10T00:21:44;11.83;;;3.70;;
19780;SDS011;10050;55.492;13.506;2023-02-10T00:24:09;19.80;;;4.63;;
19780;SDS011;10050;55.492;13.506;2023-02-10T00:26:35;19.37;;;3.80;;
19780;SDS011;10050;55.492;13.506;2023-02-10T00:29:01;12.33;;;3.47;;
19780;SDS011;10050;55.492;13.506;2023-02-10T00:31:27;15.33;;;3.67;;
19780;SDS011;10050;55.492;13.506;2023-02-10T00:33:52;22.00;;;4.43;;
19780;SDS011;10050;55.492;13.506;2023-02-10T00:36:18;22.67;;;4.17;;
19780;SDS011;10050;55.492;13.506;2023-02-10T00:38:44;19.43;;;4.27;;
19780;SDS011;10050;55.492;13.506;2023-02-10T00:41:14;16.80;;;3.90;;
19780;SDS011;10050;55.492;13.506;2023-02-10T00:43:41;21.70;;;3.97;;
19780;SDS011;10050;55.492;13.506;2023-02-10T00:46:08;23.70;;;4.27;;
19780;SDS011;10050;55.492;13.506;2023-02-10T00:48:34;20.07;;;3.70;;
19780;SDS011;10050;55.492;13.506;2023-02-10T00:51:00;17.00;;;3.63;;
19780;SDS011;10050;55.492;13.506;2023-02-10T00:53:27;20.77;;;4.47;;
19780;SDS011;10050;55.492;13.506;2023-02-10T00:55:52;16.80;;;4.07;;
19780;SDS011;10050;55.492;13.506;2023-02-10T00:58:18;10.60;;;2.83;;
19780;SDS011;10050;55.492;13.506;2023-02-10T01:00:44;11.67;;;3.43;;
19780;SDS011;10050;55.492;13.506;2023-02-10T01:03:10;19.93;;;3.77;;
19780;SDS011;10050;55.492;13.506;2023-02-10T01:05:36;10.97;;;2.70;;
19780;SDS011;10050;55.492;13.506;2023-02-10T01:08:02;17.47;;;3.40;;
19780;SDS011;10050;55.492;13.506;2023-02-10T01:10:27;26.00;;;3.97;;
19780;SDS011;10050;55.492;13.506;2023-02-10T01:12:53;19.17;;;3.37;;
19780;SDS011;10050;55.492;13.506;2023-02-10T01:15:19;19.23;;;3.53;;
19780;SDS011;10050;55.492;13.506;2023-02-10T01:17:44;15.50;;;3.90;;
19780;SDS011;10050;55.492;13.506;2023-02-10T01:20:10;24.27;;;3.57;;
19780;SDS011;10050;55.492;13.506;2023-02-10T01:22:36;18.73;;;3.50;;
19780;SDS011;10050;55.492;13.506;2023-02-10T01:25:02;20.00;;;3.83;;
19780;SDS011;10050;55.492;13.506;2023-02-10T01:27:28;17.07;;;3.53;;
19780;SDS011;10050;55.492;13.506;2023-02-10T01:29:54;25.67;;;3.53;;
19780;SDS011;10050;55.492;13.506;2023-02-10T01:32:20;19.77;;;3.53;;
19780;SDS011;10050;55.492;13.506;2023-02-10T01:34:45;24.47;;;3.77;;
19780;SDS011;10050;55.492;13.506;2023-02-10T01:37:11;14.03;;;3.47;;
19780;SDS011;10050;55.492;13.506;2023-02-10T01:39:36;19.53;;;3.17;;
19780;SDS011;10050;55.492;13.506;2023-02-10T01:42:02;9.50;;;2.70;;
19780;SDS011;10050;55.492;13.506;2023-02-10T01:46:54;18.57;;;3.50;;
19780;SDS011;10050;55.492;13.506;2023-02-10T01:49:25;19.13;;;3.23;;
19780;SDS011;10050;55.492;13.506;2023-02-10T01:51:59;23.97;;;3.50;;
19780;SDS011;10050;55.492;13.506;2023-02-10T01:54:31;11.00;;;3.20;;
19780;SDS011;10050;55.492;13.506;2023-02-10T01:57:01;23.20;;;3.40;;
19780;SDS011;10050;55.492;13.506;2023-02-10T01:59:29;18.13;;;3.83;;
19780;SDS011;10050;55.492;13.506;2023-02-10T02:01:57;18.37;;;3.57;;
19780;SDS011;10050;55.492;13.506;2023-02-10T02:04:26;15.43;;;3.57;;
19780;SDS011;10050;55.492;13.506;2023-02-10T02:06:52;21.73;;;3.50;;
19780;SDS011;10050;55.492;13.506;2023-02-10T02:09:18;18.00;;;3.53;;
19780;SDS011;10050;55.492;13.506;2023-02-10T02:11:52;16.63;;;2.90;;
19780;SDS011;10050;55.492;13.506;2023-02-10T02:23:20;15.90;;;3.20;;
19780;SDS011;10050;55.492;13.506;2023-02-10T02:34:17;18.77;;;3.10;;
19780;SDS011;10050;55.492;13.506;2023-02-10T02:36:52;16.97;;;3.37;;
19780;SDS011;10050;55.492;13.506;2023-02-10T02:39:26;17.67;;;2.73;;
19780;SDS011;10050;55.492;13.506;2023-02-10T02:44:38;23.73;;;4.43;;
19780;SDS011;10050;55.492;13.506;2023-02-10T02:47:13;11.33;;;3.10;;
19780;SDS011;10050;55.492;13.506;2023-02-10T02:52:40;19.23;;;3.77;;
19780;SDS011;10050;55.492;13.506;2023-02-10T02:55:40;16.17;;;3.47;;
19780;SDS011;10050;55.492;13.506;2023-02-10T02:58:20;22.63;;;3.43;;
19780;SDS011;10050;55.492;13.506;2023-02-10T03:00:50;21.90;;;4.20;;
19780;SDS011;10050;55.492;13.506;2023-02-10T03:03:18;19.63;;;3.57;;
19780;SDS011;10050;55.492;13.506;2023-02-10T03:05:44;21.00;;;3.90;;
19780;SDS011;10050;55.492;13.506;2023-02-10T03:08:09;19.70;;;3.57;;
19780;SDS011;10050;55.492;13.506;2023-02-10T03:10:35;17.30;;;3.87;;
19780;SDS011;10050;55.492;13.506;2023-02-10T03:13:01;15.47;;;3.67;;
19780;SDS011;10050;55.492;13.506;2023-02-10T03:15:27;17.07;;;3.60;;
19780;SDS011;10050;55.492;13.506;2023-02-10T03:17:52;26.17;;;4.47;;
19780;SDS011;10050;55.492;13.506;2023-02-10T03:20:18;17.90;;;3.93;;
19780;SDS011;10050;55.492;13.506;2023-02-10T03:22:43;16.60;;;3.87;;
19780;SDS011;10050;55.492;13.506;2023-02-10T03:25:09;23.33;;;5.03;;
19780;SDS011;10050;55.492;13.506;2023-02-10T03:27:35;17.90;;;4.13;;
19780;SDS011;10050;55.492;13.506;2023-02-10T03:30:01;20.27;;;3.47;;
19780;SDS011;10050;55.492;13.506;2023-02-10T03:32:27;17.60;;;3.00;;
19780;SDS011;10050;55.492;13.506;2023-02-10T03:34:52;16.27;;;2.73;;
19780;SDS011;10050;55.492;13.506;2023-02-10T03:37:18;20.40;;;4.07;;
19780;SDS011;10050;55.492;13.506;2023-02-10T03:39:43;22.87;;;3.93;;
19780;SDS011;10050;55.492;13.506;2023-02-10T03:42:09;17.33;;;3.43;;
19780;SDS011;10050;55.492;13.506;2023-02-10T03:44:36;16.57;;;3.17;;
19780;SDS011;10050;55.492;13.506;2023-02-10T03:47:02;17.27;;;3.73;;
19780;SDS011;10050;55.492;13.506;2023-02-10T03:49:27;17.30;;;3.40;;
19780;SDS011;10050;55.492;13.506;2023-02-10T03:51:53;15.13;;;4.00;;
19780;SDS011;10050;55.492;13.506;2023-02-10T03:54:18;19.00;;;3.87;;
19780;SDS011;10050;55.492;13.506;2023-02-10T03:56:44;16.43;;;4.20;;
19780;SDS011;10050;55.492;13.506;2023-02-10T03:59:10;19.13;;;3.57;;
19780;SDS011;10050;55.492;13.506;2023-02-10T04:01:35;23.57;;;4.90;;
19780;SDS011;10050;55.492;13.506;2023-02-10T04:04:01;17.37;;;2.80;;
19780;SDS011;10050;55.492;13.506;2023-02-10T04:06:26;14.33;;;3.93;;
19780;SDS011;10050;55.492;13.506;2023-02-10T04:08:52;8.67;;;2.93;;
19780;SDS011;10050;55.492;13.506;2023-02-10T04:11:18;29.00;;;3.90;;
19780;SDS011;10050;55.492;13.506;2023-02-10T04:13:44;22.43;;;4.47;;
19780;SDS011;10050;55.492;13.506;2023-02-10T04:16:11;14.33;;;3.57;;
19780;SDS011;10050;55.492;13.506;2023-02-10T04:18:38;21.63;;;4.00;;
19780;SDS011;10050;55.492;13.506;2023-02-10T04:21:04;27.13;;;4.53;;
19780;SDS011;10050;55.492;13.506;2023-02-10T04:23:31;20.37;;;3.50;;
19780;SDS011;10050;55.492;13.506;2023-02-10T04:25:57;21.50;;;4.17;;
19780;SDS011;10050;55.492;13.506;2023-02-10T04:28:24;13.03;;;3.07;;
19780;SDS011;10050;55.492;13.506;2023-02-10T04:30:50;18.60;;;3.73;;
19780;SDS011;10050;55.492;13.506;2023-02-10T04:33:16;16.93;;;3.83;;
19780;SDS011;10050;55.492;13.506;2023-02-10T04:35:42;18.87;;;3.30;;
19780;SDS011;10050;55.492;13.506;2023-02-10T04:38:09;18.07;;;3.83;;
19780;SDS011;10050;55.492;13.506;2023-02-10T04:40:35;21.53;;;3.17;;
19780;SDS011;10050;55.492;13.506;2023-02-10T04:43:01;18.03;;;3.43;;
19780;SDS011;10050;55.492;13.506;2023-02-10T04:45:26;16.57;;;2.73;;
19780;SDS011;10050;55.492;13.506;2023-02-10T04:47:52;18.63;;;3.40;;
19780;SDS011;10050;55.492;13.506;2023-02-10T04:50:18;14.73;;;3.70;;
19780;SDS011;10050;55.492;13.506;2023-02-10T04:52:43;18.17;;;4.03;;
19780;SDS011;10050;55.492;13.506;2023-02-10T04:55:09;18.43;;;2.97;;
19780;SDS011;10050;55.492;13.506;2023-02-10T04:57:35;16.40;;;3.70;;
19780;SDS011;10050;55.492;13.506;2023-02-10T05:00:00;16.33;;;3.53;;
19780;SDS011;10050;55.492;13.506;2023-02-10T05:02:26;14.47;;;3.33;;
19780;SDS011;10050;55.492;13.506;2023-02-10T05:04:51;16.10;;;4.60;;
19780;SDS011;10050;55.492;13.506;2023-02-10T05:07:17;12.60;;;3.30;;
19780;SDS011;10050;55.492;13.506;2023-02-10T05:09:43;15.97;;;6.17;;
19780;SDS011;10050;55.492;13.506;2023-02-10T05:12:08;10.13;;;3.63;;
19780;SDS011;10050;55.492;13.506;2023-02-10T05:14:34;17.97;;;4.83;;
19780;SDS011;10050;55.492;13.506;2023-02-10T05:16:59;14.97;;;3.50;;
19780;SDS011;10050;55.492;13.506;2023-02-10T05:19:25;16.37;;;3.40;;
19780;SDS011;10050;55.492;13.506;2023-02-10T05:21:51;17.30;;;3.43;;
19780;SDS011;10050;55.492;13.506;2023-02-10T05:24:16;19.10;;;4.80;;
19780;SDS011;10050;55.492;13.506;2023-02-10T05:26:42;15.37;;;3.90;;
19780;SDS011;10050;55.492;13.506;2023-02-10T05:29:08;18.53;;;3.33;;
19780;SDS011;10050;55.492;13.506;2023-02-10T05:31:33;10.87;;;3.47;;
19780;SDS011;10050;55.492;13.506;2023-02-10T05:33:59;15.30;;;3.60;;
19780;SDS011;10050;55.492;13.506;2023-02-10T05:36:24;18.10;;;2.80;;
19780;SDS011;10050;55.492;13.506;2023-02-10T05:38:50;13.30;;;3.60;;
19780;SDS011;10050;55.492;13.506;2023-02-10T05:41:34;16.67;;;3.40;;
19780;SDS011;10050;55.492;13.506;2023-02-10T05:44:00;13.90;;;3.67;;
19780;SDS011;10050;55.492;13.506;2023-02-10T05:46:25;15.60;;;3.83;;
19780;SDS011;10050;55.492;13.506;2023-02-10T05:48:51;18.30;;;3.77;;
19780;SDS011;10050;55.492;13.506;2023-02-10T05:51:17;17.67;;;3.30;;
19780;SDS011;10050;55.492;13.506;2023-02-10T05:53:42;19.47;;;2.93;;
19780;SDS011;10050;55.492;13.506;2023-02-10T05:56:08;16.77;;;3.87;;
19780;SDS011;10050;55.492;13.506;2023-02-10T05:58:33;12.17;;;2.73;;
19780;SDS011;10050;55.492;13.506;2023-02-10T06:00:59;11.57;;;2.70;;
19780;SDS011;10050;55.492;13.506;2023-02-10T06:03:25;10.37;;;2.50;;
19780;SDS011;10050;55.492;13.506;2023-02-10T06:05:50;13.23;;;2.40;;
19780;SDS011;10050;55.492;13.506;2023-02-10T06:08:17;11.57;;;2.40;;
19780;SDS011;10050;55.492;13.506;2023-02-10T06:10:42;12.20;;;2.87;;
19780;SDS011;10050;55.492;13.506;2023-02-10T06:13:08;17.10;;;2.70;;
19780;SDS011;10050;55.492;13.506;2023-02-10T06:15:34;16.00;;;2.67;;
19780;SDS011;10050;55.492;13.506;2023-02-10T06:17:59;12.33;;;2.67;;
19780;SDS011;10050;55.492;13.506;2023-02-10T06:20:25;13.07;;;2.33;;
19780;SDS011;10050;55.492;13.506;2023-02-10T06:22:51;12.93;;;2.90;;
19780;SDS011;10050;55.492;13.506;2023-02-10T06:25:16;16.90;;;3.40;;
19780;SDS011;10050;55.492;13.506;2023-02-10T06:27:42;10.20;;;2.30;;
19780;SDS011;10050;55.492;13.506;2023-02-10T06:30:08;18.57;;;3.07;;
19780;SDS011;10050;55.492;13.506;2023-02-10T06:32:34;14.50;;;2.80;;
19780;SDS011;10050;55.492;13.506;2023-02-10T06:35:00;15.10;;;2.67;;
19780;SDS011;10050;55.492;13.506;2023-02-10T06:37:25;11.80;;;2.83;;
19780;SDS011;10050;55.492;13.506;2023-02-10T06:39:51;9.53;;;2.10;;
19780;SDS011;10050;55.492;13.506;2023-02-10T06:42:17;16.70;;;2.33;;
19780;SDS011;10050;55.492;13.506;2023-02-10T06:44:42;15.00;;;2.97;;
19780;SDS011;10050;55.492;13.506;2023-02-10T06:47:08;13.30;;;2.70;;
19780;SDS011;10050;55.492;13.506;2023-02-10T06:49:33;12.40;;;2.50;;
19780;SDS011;10050;55.492;13.506;2023-02-10T06:52:00;14.27;;;2.80;;
19780;SDS011;10050;55.492;13.506;2023-02-10T06:54:26;8.73;;;2.83;;
19780;SDS011;10050;55.492;13.506;2023-02-10T06:56:52;7.60;;;2.73;;
19780;SDS011;10050;55.492;13.506;2023-02-10T06:59:18;22.70;;;3.27;;
19780;SDS011;10050;55.492;13.506;2023-02-10T07:01:43;12.33;;;2.80;;
19780;SDS011;10050;55.492;13.506;2023-02-10T07:04:09;11.70;;;3.10;;
19780;SDS011;10050;55.492;13.506;2023-02-10T07:06:35;11.47;;;2.80;;
19780;SDS011;10050;55.492;13.506;2023-02-10T07:09:00;17.00;;;3.83;;
19780;SDS011;10050;55.492;13.506;2023-02-10T07:11:28;15.73;;;3.00;;
19780;SDS011;10050;55.492;13.506;2023-02-10T07:13:55;11.87;;;3.13;;
19780;SDS011;10050;55.492;13.506;2023-02-10T07:16:21;14.13;;;2.93;;
19780;SDS011;10050;55.492;13.506;2023-02-10T07:18:46;19.83;;;3.37;;
19780;SDS011;10050;55.492;13.506;2023-02-10T07:21:12;16.73;;;2.97;;
19780;SDS011;10050;55.492;13.506;2023-02-10T07:23:38;16.93;;;3.27;;
19780;SDS011;10050;55.492;13.506;2023-02-10T07:26:04;15.30;;;2.77;;
19780;SDS011;10050;55.492;13.506;2023-02-10T07:28:30;11.20;;;3.10;;
19780;SDS011;10050;55.492;13.506;2023-02-10T07:30:56;16.50;;;3.00;;
19780;SDS011;10050;55.492;13.506;2023-02-10T07:33:21;9.33;;;2.67;;
19780;SDS011;10050;55.492;13.506;2023-02-10T07:35:47;12.77;;;2.50;;
19780;SDS011;10050;55.492;13.506;2023-02-10T07:38:12;16.67;;;2.63;;
19780;SDS011;10050;55.492;13.506;2023-02-10T07:40:38;15.23;;;3.03;;
19780;SDS011;10050;55.492;13.506;2023-02-10T07:43:04;11.30;;;3.23;;
19780;SDS011;10050;55.492;13.506;2023-02-10T07:45:29;15.27;;;2.63;;
19780;SDS011;10050;55.492;13.506;2023-02-10T07:47:56;14.27;;;3.10;;
19780;SDS011;10050;55.492;13.506;2023-02-10T07:50:23;12.73;;;2.57;;
19780;SDS011;10050;55.492;13.506;2023-02-10T07:52:48;15.97;;;2.70;;
19780;SDS011;10050;55.492;13.506;2023-02-10T07:55:14;9.20;;;2.50;;
19780;SDS011;10050;55.492;13.506;2023-02-10T07:57:40;11.93;;;2.70;;
19780;SDS011;10050;55.492;13.506;2023-02-10T08:00:09;9.23;;;2.40;;
19780;SDS011;10050;55.492;13.506;2023-02-10T08:02:37;9.70;;;2.03;;
19780;SDS011;10050;55.492;13.506;2023-02-10T08:05:02;12.03;;;2.97;;
19780;SDS011;10050;55.492;13.506;2023-02-10T08:07:28;6.30;;;2.17;;
19780;SDS011;10050;55.492;13.506;2023-02-10T08:09:54;7.13;;;2.20;;
19780;SDS011;10050;55.492;13.506;2023-02-10T08:12:20;10.30;;;2.60;;
19780;SDS011;10050;55.492;13.506;2023-02-10T08:14:45;8.40;;;2.27;;
19780;SDS011;10050;55.492;13.506;2023-02-10T08:17:11;10.97;;;2.30;;
19780;SDS011;10050;55.492;13.506;2023-02-10T08:19:37;7.53;;;2.10;;
19780;SDS011;10050;55.492;13.506;2023-02-10T08:22:03;7.93;;;2.20;;
19780;SDS011;10050;55.492;13.506;2023-02-10T08:24:29;6.73;;;1.90;;
19780;SDS011;10050;55.492;13.506;2023-02-10T08:26:55;6.93;;;2.10;;
19780;SDS011;10050;55.492;13.506;2023-02-10T08:29:21;7.57;;;2.07;;
19780;SDS011;10050;55.492;13.506;2023-02-10T08:31:50;6.20;;;2.43;;
19780;SDS011;10050;55.492;13.506;2023-02-10T08:34:18;10.38;;;3.00;;
19780;SDS011;10050;55.492;13.506;2023-02-10T08:36:44;8.25;;;2.30;;
19780;SDS011;10050;55.492;13.506;2023-02-10T08:39:12;6.83;;;2.30;;
19780;SDS011;10050;55.492;13.506;2023-02-10T08:41:38;7.40;;;2.40;;
19780;SDS011;10050;55.492;13.506;2023-02-10T08:44:04;7.17;;;2.40;;
19780;SDS011;10050;55.492;13.506;2023-02-10T08:46:30;6.13;;;2.30;;
19780;SDS011;10050;55.492;13.506;2023-02-10T08:48:56;6.70;;;2.37;;
19780;SDS011;10050;55.492;13.506;2023-02-10T08:51:21;8.10;;;2.13;;
19780;SDS011;10050;55.492;13.506;2023-02-10T08:53:47;8.23;;;2.50;;
19780;SDS011;10050;55.492;13.506;2023-02-10T08:56:15;6.90;;;2.70;;
19780;SDS011;10050;55.492;13.506;2023-02-10T08:58:42;5.93;;;1.93;;
19780;SDS011;10050;55.492;13.506;2023-02-10T09:01:13;6.63;;;2.03;;
19780;SDS011;10050;55.492;13.506;2023-02-10T09:03:41;6.37;;;1.93;;
19780;SDS011;10050;55.492;13.506;2023-02-10T09:06:17;9.00;;;2.13;;
19780;SDS011;10050;55.492;13.506;2023-02-10T09:08:46;8.23;;;2.27;;
19780;SDS011;10050;55.492;13.506;2023-02-10T09:11:13;10.60;;;2.30;;
19780;SDS011;10050;55.492;13.506;2023-02-10T09:13:39;9.53;;;2.47;;
19780;SDS011;10050;55.492;13.506;2023-02-10T09:16:05;11.77;;;2.57;;
19780;SDS011;10050;55.492;13.506;2023-02-10T09:18:31;5.40;;;2.23;;
19780;SDS011;10050;55.492;13.506;2023-02-10T09:20:57;11.33;;;2.20;;
19780;SDS011;10050;55.492;13.506;2023-02-10T09:23:23;7.40;;;2.33;;
19780;SDS011;10050;55.492;13.506;2023-02-10T09:25:56;12.77;;;2.97;;
19780;SDS011;10050;55.492;13.506;2023-02-10T09:28:24;12.37;;;2.77;;
19780;SDS011;10050;55.492;13.506;2023-02-10T09:30:51;10.80;;;2.70;;
19780;SDS011;10050;55.492;13.506;2023-02-10T09:33:17;10.80;;;2.70;;
19780;SDS011;10050;55.492;13.506;2023-02-10T09:35:42;9.83;;;2.80;;
19780;SDS011;10050;55.492;13.506;2023-02-10T09:38:09;9.63;;;2.97;;
19780;SDS011;10050;55.492;13.506;2023-02-10T09:43:47;12.73;;;3.13;;
19780;SDS011;10050;55.492;13.506;2023-02-10T09:49:25;10.67;;;2.57;;
19780;SDS011;10050;55.492;13.506;2023-02-10T09:54:18;11.40;;;2.87;;
19780;SDS011;10050;55.492;13.506;2023-02-10T09:56:44;9.83;;;2.77;;
19780;SDS011;10050;55.492;13.506;2023-02-10T09:59:12;12.20;;;2.67;;
19780;SDS011;10050;55.492;13.506;2023-02-10T10:01:43;9.93;;;2.83;;
19780;SDS011;10050;55.492;13.506;2023-02-10T10:04:16;9.33;;;2.57;;
19780;SDS011;10050;55.492;13.506;2023-02-10T10:06:46;10.87;;;2.47;;
19780;SDS011;10050;55.492;13.506;2023-02-10T10:09:18;9.33;;;2.70;;
19780;SDS011;10050;55.492;13.506;2023-02-10T10:11:47;5.80;;;2.17;;
19780;SDS011;10050;55.492;13.506;2023-02-10T10:14:23;18.03;;;2.67;;
19780;SDS011;10050;55.492;13.506;2023-02-10T10:31:33;11.03;;;2.77;;
19780;SDS011;10050;55.492;13.506;2023-02-10T10:36:44;10.20;;;2.87;;
19780;SDS011;10050;55.492;13.506;2023-02-10T10:42:05;12.57;;;2.87;;
19780;SDS011;10050;55.492;13.506;2023-02-10T10:45:44;16.30;;;3.37;;
19780;SDS011;10050;55.492;13.506;2023-02-10T10:48:01;15.93;;;3.20;;
19780;SDS011;10050;55.492;13.506;2023-02-10T10:50:33;15.53;;;3.00;;
19780;SDS011;10050;55.492;13.506;2023-02-10T10:52:59;16.03;;;3.60;;
19780;SDS011;10050;55.492;13.506;2023-02-10T10:58:26;10.57;;;2.87;;
19780;SDS011;10050;55.492;13.506;2023-02-10T11:00:53;12.77;;;3.10;;
19780;SDS011;10050;55.492;13.506;2023-02-10T11:03:23;13.43;;;3.43;;
19780;SDS011;10050;55.492;13.506;2023-02-10T11:05:57;12.13;;;2.80;;
19780;SDS011;10050;55.492;13.506;2023-02-10T11:08:32;8.00;;;2.67;;
19780;SDS011;10050;55.492;13.506;2023-02-10T11:11:14;12.60;;;3.17;;
19780;SDS011;10050;55.492;13.506;2023-02-10T11:13:48;10.23;;;3.23;;
19780;SDS011;10050;55.492;13.506;2023-02-10T11:16:16;16.10;;;3.10;;
19780;SDS011;10050;55.492;13.506;2023-02-10T11:18:55;13.53;;;3.03;;
19780;SDS011;10050;55.492;13.506;2023-02-10T11:21:35;13.33;;;3.17;;
19780;SDS011;10050;55.492;13.506;2023-02-10T11:24:02;15.87;;;3.17;;
19780;SDS011;10050;55.492;13.506;2023-02-10T11:26:28;12.20;;;3.40;;
19780;SDS011;10050;55.492;13.506;2023-02-10T11:28:54;10.60;;;3.83;;
19780;SDS011;10050;55.492;13.506;2023-02-10T11:34:33;13.47;;;3.60;;
19780;SDS011;10050;55.492;13.506;2023-02-10T11:36:50;8.93;;;2.60;;
19780;SDS011;10050;55.492;13.506;2023-02-10T11:39:20;8.07;;;2.70;;
19780;SDS011;10050;55.492;13.506;2023-02-10T11:41:49;13.97;;;3.33;;
19780;SDS011;10050;55.492;13.506;2023-02-10T11:44:51;12.10;;;2.73;;
19780;SDS011;10050;55.492;13.506;2023-02-10T11:47:17;11.77;;;3.20;;
19780;SDS011;10050;55.492;13.506;2023-02-10T11:49:46;9.43;;;2.43;;
19780;SDS011;10050;55.492;13.506;2023-02-10T11:52:14;13.57;;;3.13;;
19780;SDS011;10050;55.492;13.506;2023-02-10T11:54:43;16.00;;;3.00;;
19780;SDS011;10050;55.492;13.506;2023-02-10T12:11:09;12.43;;;2.60;;
19780;SDS011;10050;55.492;13.506;2023-02-10T12:16:48;11.53;;;2.57;;
19780;SDS011;10050;55.492;13.506;2023-02-10T12:27:19;11.07;;;2.80;;
19780;SDS011;10050;55.492;13.506;2023-02-10T12:30:19;15.30;;;2.93;;
19780;SDS011;10050;55.492;13.506;2023-02-10T12:41:51;11.33;;;2.67;;
19780;SDS011;10050;55.492;13.506;2023-02-10T12:44:45;19.40;;;3.43;;
19780;SDS011;10050;55.492;13.506;2023-02-10T12:50:02;14.53;;;2.87;;
19780;SDS011;10050;55.492;13.506;2023-02-10T12:52:47;11.97;;;3.23;;
19780;SDS011;10050;55.492;13.506;2023-02-10T12:58:27;12.43;;;2.23;;
19780;SDS011;10050;55.492;13.506;2023-02-10T13:01:30;11.03;;;2.60;;
19780;SDS011;10050;55.492;13.506;2023-02-10T13:04:06;10.73;;;2.90;;
19780;SDS011;10050;55.492;13.506;2023-02-10T13:07:04;13.03;;;2.60;;
19780;SDS011;10050;55.492;13.506;2023-02-10T13:09:52;11.83;;;3.00;;
19780;SDS011;10050;55.492;13.506;2023-02-10T13:12:25;10.93;;;2.83;;
19780;SDS011;10050;55.492;13.506;2023-02-10T13:14:57;17.97;;;2.73;;
19780;SDS011;10050;55.492;13.506;2023-02-10T13:17:33;12.20;;;2.67;;
19780;SDS011;10050;55.492;13.506;2023-02-10T13:22:53;20.67;;;7.07;;
19780;SDS011;10050;55.492;13.506;2023-02-10T13:25:39;15.77;;;4.50;;
19780;SDS011;10050;55.492;13.506;2023-02-10T13:36:26;17.80;;;4.87;;
19780;SDS011;10050;55.492;13.506;2023-02-10T13:41:47;15.13;;;3.60;;
19780;SDS011;10050;55.492;13.506;2023-02-10T13:44:25;12.60;;;3.70;;
19780;SDS011;10050;55.492;13.506;2023-02-10T13:49:39;11.57;;;3.77;;
19780;SDS011;10050;55.492;13.506;2023-02-10T13:52:20;15.60;;;3.53;;
19780;SDS011;10050;55.492;13.506;2023-02-10T13:54:58;13.43;;;3.07;;
19780;SDS011;10050;55.492;13.506;2023-02-10T13:57:35;15.97;;;3.20;;
19780;SDS011;10050;55.492;13.506;2023-02-10T14:00:16;14.07;;;3.20;;
19780;SDS011;10050;55.492;13.506;2023-02-10T14:02:57;13.43;;;2.87;;
19780;SDS011;10050;55.492;13.506;2023-02-10T14:05:26;18.03;;;3.10;;
19780;SDS011;10050;55.492;13.506;2023-02-10T14:07:55;15.57;;;3.33;;
19780;SDS011;10050;55.492;13.506;2023-02-10T14:13:02;18.35;;;3.92;;
19780;SDS011;10050;55.492;13.506;2023-02-10T14:15:54;14.03;;;3.70;;
19780;SDS011;10050;55.492;13.506;2023-02-10T14:18:44;13.93;;;2.60;;
19780;SDS011;10050;55.492;13.506;2023-02-10T14:21:14;16.13;;;3.80;;
19780;SDS011;10050;55.492;13.506;2023-02-10T14:23:51;16.20;;;3.23;;
19780;SDS011;10050;55.492;13.506;2023-02-10T14:26:21;10.53;;;2.97;;
19780;SDS011;10050;55.492;13.506;2023-02-10T14:28:54;15.93;;;3.17;;
19780;SDS011;10050;55.492;13.506;2023-02-10T14:31:31;17.87;;;3.10;;
19780;SDS011;10050;55.492;13.506;2023-02-10T14:34:05;16.83;;;4.33;;
19780;SDS011;10050;55.492;13.506;2023-02-10T14:36:49;18.50;;;3.43;;
19780;SDS011;10050;55.492;13.506;2023-02-10T14:39:19;15.30;;;3.80;;
19780;SDS011;10050;55.492;13.506;2023-02-10T14:41:46;16.50;;;3.70;;
19780;SDS011;10050;55.492;13.506;2023-02-10T14:44:55;15.87;;;2.93;;
19780;SDS011;10050;55.492;13.506;2023-02-10T14:47:14;15.53;;;3.33;;
19780;SDS011;10050;55.492;13.506;2023-02-10T14:49:51;17.80;;;3.50;;
19780;SDS011;10050;55.492;13.506;2023-02-10T14:52:22;17.70;;;3.87;;
19780;SDS011;10050;55.492;13.506;2023-02-10T14:54:49;15.87;;;3.47;;
19780;SDS011;10050;55.492;13.506;2023-02-10T14:57:15;16.33;;;3.33;;
19780;SDS011;10050;55.492;13.506;2023-02-10T14:59:42;18.13;;;2.93;;
19780;SDS011;10050;55.492;13.506;2023-02-10T15:02:19;11.43;;;3.27;;
19780;SDS011;10050;55.492;13.506;2023-02-10T15:04:48;18.33;;;3.47;;
19780;SDS011;10050;55.492;13.506;2023-02-10T15:07:25;11.93;;;3.43;;
19780;SDS011;10050;55.492;13.506;2023-02-10T15:09:54;16.70;;;3.40;;
19780;SDS011;10050;55.492;13.506;2023-02-10T15:12:23;6.97;;;2.27;;
19780;SDS011;10050;55.492;13.506;2023-02-10T15:15:00;14.80;;;3.53;;
19780;SDS011;10050;55.492;13.506;2023-02-10T15:17:45;15.60;;;3.93;;
19780;SDS011;10050;55.492;13.506;2023-02-10T15:20:20;15.33;;;3.20;;
19780;SDS011;10050;55.492;13.506;2023-02-10T15:27:55;29.23;;;4.53;;
19780;SDS011;10050;55.492;13.506;2023-02-10T15:30:27;17.37;;;3.93;;
19780;SDS011;10050;55.492;13.506;2023-02-10T15:32:55;24.23;;;4.57;;
19780;SDS011;10050;55.492;13.506;2023-02-10T15:35:22;13.03;;;3.63;;
19780;SDS011;10050;55.492;13.506;2023-02-10T15:37:52;17.93;;;4.27;;
19780;SDS011;10050;55.492;13.506;2023-02-10T15:40:29;12.90;;;4.17;;
19780;SDS011;10050;55.492;13.506;2023-02-10T15:42:59;20.77;;;3.80;;
19780;SDS011;10050;55.492;13.506;2023-02-10T15:45:46;19.93;;;4.93;;
19780;SDS011;10050;55.492;13.506;2023-02-10T15:48:14;15.43;;;3.87;;
19780;SDS011;10050;55.492;13.506;2023-02-10T15:50:46;17.97;;;3.77;;
19780;SDS011;10050;55.492;13.506;2023-02-10T15:53:16;18.90;;;4.37;;
19780;SDS011;10050;55.492;13.506;2023-02-10T15:55:45;18.30;;;4.80;;
19780;SDS011;10050;55.492;13.506;2023-02-10T15:58:12;16.63;;;4.38;;
19780;SDS011;10050;55.492;13.506;2023-02-10T16:00:39;19.83;;;4.43;;
19780;SDS011;10050;55.492;13.506;2023-02-10T16:03:07;14.70;;;4.03;;
19780;SDS011;10050;55.492;13.506;2023-02-10T16:05:33;17.40;;;3.90;;
19780;SDS011;10050;55.492;13.506;2023-02-10T16:08:05;30.80;;;4.83;;
19780;SDS011;10050;55.492;13.506;2023-02-10T16:10:38;29.63;;;5.07;;
19780;SDS011;10050;55.492;13.506;2023-02-10T16:13:04;12.80;;;3.67;;
19780;SDS011;10050;55.492;13.506;2023-02-10T16:15:30;19.83;;;4.10;;
19780;SDS011;10050;55.492;13.506;2023-02-10T16:17:58;35.47;;;5.47;;
19780;SDS011;10050;55.492;13.506;2023-02-10T16:20:27;19.03;;;4.13;;
19780;SDS011;10050;55.492;13.506;2023-02-10T16:22:54;14.30;;;4.43;;
19780;SDS011;10050;55.492;13.506;2023-02-10T16:25:21;19.13;;;5.17;;
19780;SDS011;10050;55.492;13.506;2023-02-10T16:27:48;20.63;;;4.87;;
19780;SDS011;10050;55.492;13.506;2023-02-10T16:30:15;18.83;;;5.10;;
19780;SDS011;10050;55.492;13.506;2023-02-10T16:32:42;17.20;;;4.83;;
19780;SDS011;10050;55.492;13.506;2023-02-10T16:35:08;16.30;;;4.57;;
19780;SDS011;10050;55.492;13.506;2023-02-10T16:37:35;17.73;;;5.13;;
19780;SDS011;10050;55.492;13.506;2023-02-10T16:40:00;23.93;;;6.27;;